Time;durP1;ratioP1;P1;durP2;ratioP2;P2;SDS_P1;SDS_P2;PMS_P1;PMS_P2;Temp;Humidity;BMP_temperature;BMP_pressure;BME280_temperature;BME280_humidity;BME280_pressure;Samples;Min_cycle;Max_cycle;Signal;HPM_P1;HPM_P2
2022/05/28 00:01:07;;;;;;;3.58;1.85;;;;;;;12.16;79.62;99863.89;1703014;82;21098;-73
2022/05/28 00:03:34;;;;;;;2.90;1.77;;;;;;;12.17;79.81;99876.18;1701911;82;21109;-74
2022/05/28 00:06:02;;;;;;;3.15;1.87;;;;;;;12.20;79.75;99863.56;1705961;82;21057;-72
2022/05/28 00:08:29;;;;;;;3.58;2.10;;;;;;;12.22;79.56;99878.82;1701895;82;21106;-72
2022/05/28 00:10:58;;;;;;;2.83;1.80;;;;;;;12.19;79.54;99881.52;1716993;82;21098;-73
2022/05/28 00:13:25;;;;;;;2.85;2.00;;;;;;;12.15;79.61;99885.84;1703541;82;21228;-72
2022/05/28 00:15:52;;;;;;;4.53;1.90;;;;;;;12.14;79.73;99888.80;1692759;84;21078;-71
2022/05/28 00:18:19;;;;;;;2.70;1.80;;;;;;;12.15;79.81;99897.10;1716398;82;21078;-72
2022/05/28 00:20:46;;;;;;;4.50;2.10;;;;;;;12.15;79.93;99893.87;1724135;82;21085;-71
2022/05/28 00:23:14;;;;;;;2.90;2.00;;;;;;;12.14;80.02;99886.12;1704281;84;21117;-73
2022/05/28 00:25:41;;;;;;;2.50;1.50;;;;;;;12.16;80.07;99880.74;1706311;82;21660;-73
2022/05/28 00:28:08;;;;;;;3.80;2.00;;;;;;;12.13;79.79;99870.59;1723284;82;21066;-73
2022/05/28 00:30:35;;;;;;;3.42;2.00;;;;;;;12.13;79.79;99861.77;1709217;82;21054;-73
2022/05/28 00:33:02;;;;;;;4.10;2.20;;;;;;;12.15;79.93;99840.34;1708293;82;21100;-73
2022/05/28 00:35:29;;;;;;;4.42;2.08;;;;;;;12.14;79.86;99817.34;1721778;82;21061;-72
2022/05/28 00:37:56;;;;;;;3.45;1.75;;;;;;;12.15;79.83;99803.41;1708678;82;21233;-72
2022/05/28 00:40:25;;;;;;;3.62;2.05;;;;;;;12.14;79.77;99841.43;1683060;84;21058;-72
2022/05/28 00:42:52;;;;;;;3.20;1.87;;;;;;;12.12;79.79;99864.20;1716381;83;21004;-71
2022/05/28 00:45:19;;;;;;;3.67;2.15;;;;;;;12.11;79.87;99845.19;1693646;84;21087;-73
2022/05/28 00:47:49;;;;;;;3.33;2.08;;;;;;;12.13;79.94;99835.80;1704157;81;21438;-72
2022/05/28 00:50:16;;;;;;;4.12;2.22;;;;;;;12.18;80.00;99838.98;1720368;81;21249;-72
2022/05/28 00:52:44;;;;;;;3.47;2.05;;;;;;;12.18;79.99;99851.02;1688034;83;21574;-73
2022/05/28 00:55:11;;;;;;;3.62;1.95;;;;;;;12.18;80.05;99857.17;1722560;83;21225;-73
2022/05/28 00:57:40;;;;;;;2.60;1.80;;;;;;;12.16;80.13;99851.30;1736602;81;21049;-72
2022/05/28 01:00:10;;;;;;;3.60;2.12;;;;;;;12.16;80.13;99850.50;1724825;81;21114;-73
2022/05/28 01:03:06;;;;;;;3.67;1.95;;;;;;;12.17;80.26;99851.57;1722270;81;21229;-73
2022/05/28 01:06:13;;;;;;;4.03;2.20;;;;;;;12.20;80.13;99850.18;1726019;81;21090;-72
2022/05/28 01:08:56;;;;;;;3.98;2.20;;;;;;;12.21;79.93;99826.36;1723152;81;22208;-72
2022/05/28 01:11:34;;;;;;;3.00;2.10;;;;;;;12.19;79.95;99865.45;1726011;81;21041;-72
2022/05/28 01:14:20;;;;;;;3.50;2.10;;;;;;;12.18;79.96;99867.09;1723315;83;21075;-72
2022/05/28 01:16:54;;;;;;;4.83;2.40;;;;;;;12.15;80.00;99841.67;1693802;83;21682;-72
2022/05/28 01:20:15;;;;;;;4.45;2.40;;;;;;;12.13;80.00;99855.08;1723595;83;21646;-72
2022/05/28 01:23:23;;;;;;;3.20;1.70;;;;;;;12.11;80.04;99866.60;1712539;83;21115;-72
2022/05/28 01:26:20;;;;;;;3.27;2.20;;;;;;;12.11;80.10;99874.63;1719888;83;21633;-72
2022/05/28 01:28:52;;;;;;;3.77;1.95;;;;;;;12.09;80.23;99868.23;1723570;83;21107;-72
2022/05/28 01:31:20;;;;;;;3.58;2.20;;;;;;;12.09;80.18;99856.73;1725098;83;21123;-72
2022/05/28 01:33:47;;;;;;;2.80;1.90;;;;;;;12.06;79.89;99861.31;1714722;82;21107;-73
2022/05/28 01:36:15;;;;;;;3.85;2.27;;;;;;;12.08;80.03;99870.67;1717521;83;21130;-72
2022/05/28 01:38:43;;;;;;;4.15;2.33;;;;;;;12.11;79.95;99867.42;1710121;83;21601;-72
2022/05/28 01:41:10;;;;;;;3.37;2.00;;;;;;;12.13;79.77;99856.42;1724589;83;21097;-72
2022/05/28 01:43:40;;;;;;;3.33;2.30;;;;;;;12.12;79.77;99864.20;1721744;82;22162;-73
2022/05/28 01:46:07;;;;;;;2.75;2.12;;;;;;;12.13;79.84;99855.87;1720976;82;21034;-72
2022/05/28 01:48:34;;;;;;;3.22;1.98;;;;;;;12.15;79.61;99843.56;1722790;83;21055;-73
2022/05/28 01:51:01;;;;;;;3.60;2.20;;;;;;;12.16;79.50;99846.48;1722342;83;21602;-73
2022/05/28 01:56:13;;;;;;;3.50;2.20;;;;;;;12.21;79.18;99875.89;1716692;81;21138;-73
2022/05/28 01:58:40;;;;;;;3.30;2.00;;;;;;;12.23;79.08;99884.97;1699249;81;21040;-72
2022/05/28 02:01:09;;;;;;;4.92;2.10;;;;;;;12.23;78.91;99865.67;1705571;82;21010;-72
2022/05/28 02:03:39;;;;;;;3.35;2.30;;;;;;;12.17;78.70;99888.23;1722329;81;21076;-72
2022/05/28 02:06:06;;;;;;;4.78;2.45;;;;;;;12.15;78.80;99854.27;1723751;81;21024;-72
2022/05/28 02:08:36;;;;;;;4.10;2.20;;;;;;;12.16;78.68;99876.73;1726799;81;21115;-73
2022/05/28 02:11:22;;;;;;;3.60;2.15;;;;;;;12.17;78.75;99865.47;1719222;81;21032;-72
2022/05/28 02:14:13;;;;;;;3.35;2.25;;;;;;;12.14;78.74;99845.45;1725230;81;21071;-73
2022/05/28 02:17:17;;;;;;;3.93;2.47;;;;;;;12.15;78.78;99844.90;1701512;81;21107;-74
2022/05/28 02:20:21;;;;;;;2.98;1.95;;;;;;;12.17;78.86;99844.05;1677954;83;21086;-72
2022/05/28 02:23:02;;;;;;;3.30;2.20;;;;;;;12.19;78.84;99835.21;1635816;85;21270;-72
2022/05/28 02:25:36;;;;;;;3.15;2.10;;;;;;;12.20;78.82;99858.22;1684232;83;21082;-72
2022/05/28 02:28:04;;;;;;;3.42;1.95;;;;;;;12.19;78.91;99869.47;1721629;81;21495;-72
2022/05/28 02:30:32;;;;;;;3.60;2.20;;;;;;;12.22;78.89;99859.28;1720598;81;21020;-72
2022/05/28 02:33:03;;;;;;;3.55;2.10;;;;;;;12.23;78.89;99864.34;1710618;81;21424;-72
2022/05/28 02:35:31;;;;;;;2.75;1.95;;;;;;;12.26;78.63;99865.66;1732332;81;21538;-72
2022/05/28 02:37:59;;;;;;;4.05;2.20;;;;;;;12.29;78.55;99865.09;1728246;81;20977;-74
2022/05/28 02:40:26;;;;;;;5.00;2.55;;;;;;;12.34;78.42;99875.21;1726089;83;21044;-74
2022/05/28 02:42:53;;;;;;;3.60;2.22;;;;;;;12.39;78.32;99884.52;1723324;81;21072;-73
2022/05/28 02:45:23;;;;;;;4.25;2.72;;;;;;;12.40;78.13;99886.13;1727366;81;21048;-73
2022/05/28 02:47:50;;;;;;;3.50;2.30;;;;;;;12.40;78.00;99882.62;1723497;81;21240;-73
2022/05/28 02:50:17;;;;;;;4.87;2.27;;;;;;;12.42;78.01;99885.83;1709568;82;21076;-72
2022/05/28 02:52:46;;;;;;;3.08;2.30;;;;;;;12.43;77.92;99879.37;1709909;82;21083;-73
2022/05/28 02:55:13;;;;;;;3.60;2.30;;;;;;;12.43;77.88;99874.81;1694732;82;21118;-73
2022/05/28 02:57:41;;;;;;;4.17;2.40;;;;;;;12.46;77.95;99878.81;1699416;82;21120;-73
2022/05/28 03:00:10;;;;;;;4.10;2.30;;;;;;;12.51;77.64;99875.30;1725884;81;22099;-74
2022/05/28 03:02:37;;;;;;;4.25;2.40;;;;;;;12.52;77.52;99878.22;1704462;81;21053;-73
2022/05/28 03:05:05;;;;;;;3.90;2.20;;;;;;;12.56;77.67;99877.89;1703017;82;20983;-73
2022/05/28 03:07:32;;;;;;;3.80;2.52;;;;;;;12.61;77.51;99879.19;1722908;81;21127;-73
2022/05/28 03:10:00;;;;;;;3.87;2.60;;;;;;;12.63;77.31;99884.48;1712390;81;21511;-73
2022/05/28 03:12:27;;;;;;;3.75;2.40;;;;;;;12.63;77.12;99881.81;1693741;82;21223;-73
2022/05/28 03:14:55;;;;;;;3.50;2.63;;;;;;;12.64;76.97;99878.61;1702296;82;21039;-74
2022/05/28 03:17:21;;;;;;;3.67;2.30;;;;;;;12.66;77.08;99875.09;1704646;82;21305;-73
2022/05/28 03:19:49;;;;;;;3.52;2.50;;;;;;;12.69;76.90;99883.89;1703322;82;21088;-74
2022/05/28 03:22:15;;;;;;;3.60;2.30;;;;;;;12.68;76.83;99889.01;1704295;82;21023;-73
2022/05/28 03:24:42;;;;;;;4.42;2.55;;;;;;;12.73;76.92;99894.83;1702847;82;21148;-72
2022/05/28 03:27:09;;;;;;;3.30;2.30;;;;;;;12.82;76.62;99895.80;1703859;82;21423;-73
2022/05/28 03:29:36;;;;;;;4.33;2.80;;;;;;;12.87;76.48;99907.80;1702174;82;21735;-72
2022/05/28 03:32:05;;;;;;;3.50;2.50;;;;;;;12.86;76.11;99914.23;1707284;82;21325;-73
2022/05/28 03:34:31;;;;;;;4.47;2.47;;;;;;;12.84;75.95;99915.87;1703463;82;21396;-73
2022/05/28 03:36:58;;;;;;;3.50;2.67;;;;;;;12.78;75.85;99918.35;1688430;82;21332;-72
2022/05/28 03:39:25;;;;;;;3.70;2.40;;;;;;;12.80;75.98;99911.35;1696412;82;21254;-73
2022/05/28 03:41:52;;;;;;;5.00;2.70;;;;;;;12.80;75.84;99914.03;1695837;82;21558;-73
2022/05/28 03:44:19;;;;;;;3.57;2.40;;;;;;;12.79;75.75;99903.86;1701149;82;21342;-73
2022/05/28 03:46:47;;;;;;;4.70;2.77;;;;;;;12.81;75.53;99904.38;1703336;82;21677;-73
2022/05/28 03:49:29;;;;;;;3.93;2.90;;;;;;;12.85;75.49;99917.45;1701153;82;21423;-74
2022/05/28 03:51:56;;;;;;;4.25;2.85;;;;;;;12.85;75.27;99904.60;1700568;82;21440;-73
2022/05/28 03:54:23;;;;;;;4.40;2.90;;;;;;;12.87;75.23;99901.89;1693491;82;20998;-73
2022/05/28 03:56:53;;;;;;;4.03;2.83;;;;;;;12.86;74.96;99896.26;1709649;82;21002;-73
2022/05/28 03:59:20;;;;;;;3.73;2.63;;;;;;;12.94;74.94;99909.58;1705124;82;21288;-73
2022/05/28 04:01:48;;;;;;;5.23;2.90;;;;;;;13.04;74.74;99902.73;1705682;83;21689;-73
2022/05/28 04:04:14;;;;;;;4.50;2.77;;;;;;;13.09;74.29;99908.02;1706443;82;21615;-73
2022/05/28 04:06:41;;;;;;;3.90;2.87;;;;;;;13.12;74.21;99906.65;1700861;82;21673;-74
2022/05/28 04:09:08;;;;;;;4.13;3.07;;;;;;;13.13;74.27;99909.61;1700630;82;21312;-75
2022/05/28 04:11:38;;;;;;;3.67;2.60;;;;;;;13.13;74.03;99906.92;1697823;82;21246;-74
2022/05/28 04:14:05;;;;;;;4.20;3.00;;;;;;;13.17;73.93;99908.48;1697250;82;21401;-74
2022/05/28 04:16:34;;;;;;;5.43;3.00;;;;;;;13.21;74.11;99902.23;1715654;82;21083;-75
2022/05/28 04:19:01;;;;;;;4.53;3.30;;;;;;;13.27;74.07;99907.02;1704762;82;21553;-74
2022/05/28 04:21:28;;;;;;;6.17;3.37;;;;;;;13.33;74.02;99908.55;1690953;82;21862;-73
2022/05/28 04:23:57;;;;;;;4.93;3.50;;;;;;;13.34;73.65;99908.23;1688817;82;21324;-74
2022/05/28 04:26:24;;;;;;;5.90;4.10;;;;;;;13.35;73.35;99923.23;1705652;82;22182;-73
2022/05/28 04:28:51;;;;;;;6.53;4.43;;;;;;;13.38;73.26;99919.19;1681850;82;21632;-74
2022/05/28 04:31:18;;;;;;;6.83;3.70;;;;;;;13.36;72.87;99920.83;1698217;82;21132;-74
2022/05/28 04:33:45;;;;;;;5.30;3.63;;;;;;;13.34;72.94;99920.86;1691852;82;21832;-74
2022/05/28 04:36:12;;;;;;;4.73;3.30;;;;;;;13.42;73.10;99928.23;1706266;82;21367;-74
2022/05/28 04:38:39;;;;;;;4.67;3.10;;;;;;;13.52;73.00;99939.36;1708097;82;21809;-74
2022/05/28 04:41:07;;;;;;;4.13;2.83;;;;;;;13.52;72.19;99928.11;1704308;82;21219;-74
2022/05/28 04:43:35;;;;;;;4.97;3.00;;;;;;;13.55;72.32;99924.02;1704774;82;21362;-74
2022/05/28 04:46:02;;;;;;;4.00;2.80;;;;;;;13.59;71.74;99926.40;1698449;82;21383;-74
2022/05/28 04:48:29;;;;;;;5.27;3.00;;;;;;;13.56;71.47;99929.66;1703217;82;21299;-74
2022/05/28 04:50:57;;;;;;;5.50;3.20;;;;;;;13.52;71.61;99928.62;1679714;84;21377;-74
2022/05/28 04:53:24;;;;;;;8.93;2.97;;;;;;;13.55;71.33;99921.34;1689055;82;21287;-73
2022/05/28 04:55:51;;;;;;;5.37;3.00;;;;;;;13.55;71.35;99932.07;1701743;82;21405;-74
2022/05/28 04:58:19;;;;;;;4.40;2.90;;;;;;;13.54;71.06;99927.25;1696621;82;21328;-74
2022/05/28 05:00:46;;;;;;;4.23;3.00;;;;;;;13.54;70.73;99939.87;1703191;82;22210;-73
2022/05/28 05:03:15;;;;;;;5.33;2.97;;;;;;;13.53;70.75;99945.00;1704488;82;21548;-73
2022/05/28 05:05:43;;;;;;;4.80;3.20;;;;;;;13.49;70.55;99936.73;1695264;82;21370;-73
2022/05/28 05:08:10;;;;;;;4.97;3.43;;;;;;;13.56;70.82;99945.77;1684889;82;21333;-74
2022/05/28 05:10:38;;;;;;;5.80;3.47;;;;;;;13.64;70.84;99953.14;1679533;82;21311;-73
2022/05/28 05:13:05;;;;;;;4.97;3.07;;;;;;;13.74;70.85;99963.71;1699327;82;21736;-74
2022/05/28 05:15:32;;;;;;;4.63;3.37;;;;;;;13.76;70.19;99954.04;1712853;82;21291;-73
2022/05/28 05:17:59;;;;;;;4.00;3.40;;;;;;;13.73;69.38;99944.69;1693343;82;21094;-74
2022/05/28 05:20:26;;;;;;;4.43;3.10;;;;;;;13.72;69.14;99951.15;1686116;82;21243;-73
2022/05/28 05:22:54;;;;;;;4.57;3.10;;;;;;;13.82;69.71;99944.27;1686283;82;21521;-73
2022/05/28 05:25:22;;;;;;;4.87;3.20;;;;;;;13.97;69.13;99951.27;1706476;82;21286;-73
2022/05/28 05:27:49;;;;;;;6.60;3.33;;;;;;;14.03;68.91;99946.06;1702733;82;21297;-73
2022/05/28 05:30:16;;;;;;;4.87;3.07;;;;;;;14.09;68.40;99946.78;1712292;82;21314;-73
2022/05/28 05:32:43;;;;;;;3.70;2.90;;;;;;;14.15;68.21;99937.55;1703810;82;21257;-74
2022/05/28 05:35:10;;;;;;;4.70;3.07;;;;;;;14.28;68.26;99940.80;1703867;82;21284;-73
2022/05/28 05:37:38;;;;;;;4.23;2.67;;;;;;;14.38;67.47;99937.66;1711212;82;21798;-73
2022/05/28 05:40:08;;;;;;;4.43;3.10;;;;;;;14.56;67.49;99939.50;1704648;82;21257;-72
2022/05/28 05:42:35;;;;;;;6.23;3.10;;;;;;;14.56;67.49;99939.50;1689758;82;21490;-74
2022/05/28 05:45:02;;;;;;;5.07;3.63;;;;;;;14.55;66.66;99940.61;1697418;82;21476;-74
2022/05/28 05:47:29;;;;;;;5.30;3.50;;;;;;;14.60;66.35;99936.46;1688463;82;21430;-74
2022/05/28 05:49:57;;;;;;;6.33;3.77;;;;;;;14.69;66.42;99934.67;1693682;82;21390;-75
2022/05/28 05:52:25;;;;;;;4.67;3.33;;;;;;;14.78;66.19;99934.78;1691430;84;21824;-74
2022/05/28 05:54:53;;;;;;;5.50;4.07;;;;;;;14.87;66.00;99940.23;1714952;82;21483;-75
2022/05/28 05:57:19;;;;;;;4.03;3.20;;;;;;;15.14;64.49;99951.52;1704709;82;21892;-75
2022/05/28 05:59:47;;;;;;;5.03;3.50;;;;;;;15.14;64.49;99951.52;1687821;82;21418;-73
2022/05/28 06:02:17;;;;;;;6.40;3.70;;;;;;;15.30;62.50;99963.55;1696479;82;21940;-73
2022/05/28 06:04:44;;;;;;;5.20;3.47;;;;;;;15.30;62.50;99963.55;1705478;82;21559;-73
2022/05/28 06:07:11;;;;;;;5.13;3.27;;;;;;;15.23;62.50;99965.30;1695837;82;21558;-74
2022/05/28 06:09:40;;;;;;;6.00;3.90;;;;;;;15.19;62.27;99971.02;1703914;82;21556;-73
2022/05/28 06:12:07;;;;;;;5.97;3.83;;;;;;;15.12;63.15;99957.19;1698294;82;21584;-73
2022/05/28 06:14:35;;;;;;;4.57;3.43;;;;;;;15.16;63.80;99949.30;1702979;82;21651;-76
2022/05/28 06:17:03;;;;;;;4.60;3.40;;;;;;;15.16;63.80;99949.30;1472661;82;10000590;-78
2022/05/28 06:19:30;;;;;;;5.27;3.70;;;;;;;15.24;63.19;99939.98;1708083;82;21520;-79
2022/05/28 06:21:59;;;;;;;4.60;3.20;;;;;;;15.24;63.19;99939.98;1703205;82;21507;-78
2022/05/28 06:24:26;;;;;;;4.63;3.27;;;;;;;15.29;61.43;99946.34;1706078;82;21647;-74
2022/05/28 06:26:56;;;;;;;7.13;3.30;;;;;;;15.32;61.29;99947.08;1706145;82;21727;-74
2022/05/28 06:29:23;;;;;;;4.47;3.17;;;;;;;15.32;61.29;99947.08;1705546;82;21652;-74
2022/05/28 06:31:50;;;;;;;5.27;3.50;;;;;;;15.38;60.97;99935.11;1699337;82;21856;-75
2022/05/28 06:34:18;;;;;;;3.77;2.97;;;;;;;15.55;61.07;99939.28;1702790;82;21799;-74
2022/05/28 06:36:49;;;;;;;5.50;3.23;;;;;;;15.55;61.07;99939.28;1704007;82;21800;-75
2022/05/28 06:39:16;;;;;;;4.97;3.27;;;;;;;15.65;60.14;99949.02;1709328;82;21784;-77
2022/05/28 06:41:43;;;;;;;4.57;3.10;;;;;;;15.63;60.07;99958.76;1702905;82;21304;-75
2022/05/28 06:44:13;;;;;;;5.90;3.63;;;;;;;15.59;60.06;99961.00;1702754;82;21762;-77
2022/05/28 06:46:40;;;;;;;5.87;3.40;;;;;;;15.56;59.74;99954.31;1705938;82;21776;-76
2022/05/28 06:49:06;;;;;;;5.33;3.10;;;;;;;15.52;59.81;99960.63;1702680;82;22423;-77
2022/05/28 06:51:34;;;;;;;6.00;3.50;;;;;;;15.46;59.28;99957.25;1702637;82;21792;-75
2022/05/28 06:54:01;;;;;;;5.90;3.53;;;;;;;15.55;59.94;99960.02;1701317;82;21782;-74
2022/05/28 06:56:28;;;;;;;3.80;3.07;;;;;;;15.69;59.59;99964.83;1701510;82;22128;-77
2022/05/28 06:58:55;;;;;;;5.03;3.00;;;;;;;15.69;58.96;99961.61;1702988;83;22194;-76
2022/05/28 07:01:22;;;;;;;4.23;3.17;;;;;;;15.71;58.78;99954.00;1702907;83;21907;-74
2022/05/28 07:03:49;;;;;;;5.17;3.37;;;;;;;15.81;59.07;99960.25;1702252;82;21779;-76
2022/05/28 07:06:16;;;;;;;4.93;3.60;;;;;;;15.89;58.86;99954.12;1700162;82;21801;-79
2022/05/28 07:08:45;;;;;;;5.33;4.00;;;;;;;15.95;58.62;99946.95;1704177;82;22338;-75
2022/05/28 07:11:12;;;;;;;5.43;3.37;;;;;;;15.98;58.83;99950.14;1704320;83;21725;-76
2022/05/28 07:13:39;;;;;;;4.30;3.40;;;;;;;15.95;57.84;99943.47;1703787;83;21793;-75
2022/05/28 07:16:06;;;;;;;4.67;3.20;;;;;;;15.89;57.92;99947.38;1704127;83;21714;-74
2022/05/28 07:18:38;;;;;;;4.20;3.27;;;;;;;15.91;57.54;99957.31;1703095;83;21817;-74
2022/05/28 07:21:06;;;;;;;5.10;3.37;;;;;;;15.99;57.77;99961.97;1700549;82;21769;-76
2022/05/28 07:23:34;;;;;;;5.50;3.40;;;;;;;16.11;57.94;99958.14;1706415;82;21911;-73
2022/05/28 07:26:13;;;;;;;7.20;3.67;;;;;;;16.32;58.02;99960.30;1703358;82;22418;-72
2022/05/28 07:28:41;;;;;;;5.17;3.43;;;;;;;16.52;57.11;99954.39;1700844;82;21849;-72
2022/05/28 07:31:10;;;;;;;3.83;2.67;;;;;;;16.78;56.04;99960.44;1704133;82;21726;-70
2022/05/28 07:33:40;;;;;;;4.70;3.30;;;;;;;16.84;55.57;99957.28;1700593;82;21728;-72
2022/05/28 07:36:10;;;;;;;4.97;3.20;;;;;;;16.88;55.60;99960.18;1720303;83;21782;-71
2022/05/28 07:38:38;;;;;;;5.53;3.63;;;;;;;16.84;54.78;99960.55;1720044;81;21826;-72
2022/05/28 07:41:08;;;;;;;5.83;3.30;;;;;;;16.80;55.22;99973.08;1717616;81;21801;-77
2022/05/28 07:43:36;;;;;;;6.78;3.27;;;;;;;16.89;55.59;99960.41;1715662;81;21095;-79
2022/05/28 07:46:05;;;;;;;5.00;3.23;;;;;;;17.03;54.95;99960.28;1722845;81;21084;-79
2022/05/28 07:48:32;;;;;;;4.10;2.67;;;;;;;17.29;54.49;99953.02;1722221;81;21099;-72
2022/05/28 07:50:59;;;;;;;6.13;3.23;;;;;;;17.44;54.61;99953.12;1719877;81;21047;-72
2022/05/28 07:53:26;;;;;;;4.93;2.80;;;;;;;17.44;54.61;99953.12;1727883;81;21146;-72
2022/05/28 07:55:54;;;;;;;6.30;2.97;;;;;;;17.51;53.14;99947.24;1718778;81;21131;-72
2022/05/28 07:58:21;;;;;;;4.10;2.57;;;;;;;17.47;51.98;99953.02;1723853;81;21078;-72
2022/05/28 08:00:49;;;;;;;5.17;2.90;;;;;;;17.36;52.86;99947.14;1720607;81;21517;-72
2022/05/28 08:03:17;;;;;;;8.07;2.93;;;;;;;17.45;52.89;99957.39;1695535;82;21109;-83
2022/05/28 08:05:47;;;;;;;4.33;2.60;;;;;;;17.65;52.13;99949.21;1702185;83;21031;-80
2022/05/28 08:08:15;;;;;;;5.67;2.97;;;;;;;17.85;51.70;99954.54;1693961;82;21058;-81
2022/05/28 08:10:44;;;;;;;5.43;2.80;;;;;;;17.91;51.16;99949.77;1698884;82;21165;-79
2022/05/28 08:13:18;;;;;;;4.17;2.47;;;;;;;17.85;50.26;99951.05;1698898;82;21610;-79
2022/05/28 08:15:45;;;;;;;4.50;2.50;;;;;;;17.81;50.51;99946.28;1699708;82;21084;-82
2022/05/28 08:18:15;;;;;;;6.00;2.63;;;;;;;17.94;50.60;99948.58;1697399;83;21062;-81
2022/05/28 08:23:28;;;;;;;4.57;2.00;;;;;;;18.30;48.99;99950.64;1698310;82;21078;-81
2022/05/28 08:25:54;;;;;;;5.00;2.20;;;;;;;18.36;47.86;99950.14;1720398;81;21521;-72
2022/05/28 08:28:22;;;;;;;4.10;2.03;;;;;;;18.37;47.93;99954.42;1719820;81;21132;-73
2022/05/28 08:30:50;;;;;;;5.60;2.37;;;;;;;18.44;47.97;99950.65;1694359;83;21042;-72
2022/05/28 08:33:19;;;;;;;5.10;1.87;;;;;;;18.50;46.96;99953.41;1698889;82;21073;-73
2022/05/28 08:35:47;;;;;;;3.90;2.00;;;;;;;18.58;46.11;99950.42;1720408;81;21059;-71
2022/05/28 08:38:20;;;;;;;6.13;2.67;;;;;;;18.70;45.70;99952.45;1685526;83;21146;-72
2022/05/28 08:41:13;;;;;;;4.07;1.90;;;;;;;18.68;45.30;99950.63;1717183;81;21118;-72
2022/05/28 08:43:46;;;;;;;4.27;1.87;;;;;;;18.72;45.21;99950.23;1718010;81;21545;-73
2022/05/28 08:46:15;;;;;;;6.13;2.00;;;;;;;18.84;45.42;99950.89;1716548;81;21143;-72
2022/05/28 08:48:51;;;;;;;3.60;1.73;;;;;;;19.08;44.79;99944.85;1720898;81;21183;-72
2022/05/28 08:51:54;;;;;;;5.27;1.80;;;;;;;19.34;44.91;99939.25;1710756;81;21123;-72
2022/05/28 08:54:39;;;;;;;4.53;2.20;;;;;;;19.63;44.21;99948.67;1718269;81;21067;-72
2022/05/28 08:57:18;;;;;;;3.17;1.70;;;;;;;19.81;42.06;99938.48;1718551;81;21162;-72
2022/05/28 09:00:00;;;;;;;2.90;1.77;;;;;;;19.67;42.16;99954.22;1720133;81;21586;-71
2022/05/28 09:02:47;;;;;;;3.30;1.60;;;;;;;19.33;41.29;99945.23;1716336;83;21306;-72
2022/05/28 09:05:28;;;;;;;4.17;1.70;;;;;;;19.28;42.62;99946.80;1716675;81;21353;-73
2022/05/28 09:08:03;;;;;;;4.77;1.70;;;;;;;19.48;41.91;99940.33;1720058;81;21028;-72
2022/05/28 09:10:46;;;;;;;2.93;1.70;;;;;;;19.72;41.46;99943.76;1720894;81;21059;-71
2022/05/28 09:13:40;;;;;;;5.27;1.90;;;;;;;19.70;41.03;99940.58;1715161;81;21115;-73
2022/05/28 09:16:27;;;;;;;4.00;1.90;;;;;;;19.72;41.72;99941.05;1712411;81;21703;-71
2022/05/28 09:19:02;;;;;;;3.43;1.63;;;;;;;19.83;42.11;99944.34;1714372;81;21234;-72
2022/05/28 09:21:29;;;;;;;4.60;2.00;;;;;;;19.91;41.24;99942.13;1717943;81;21119;-72
2022/05/28 09:24:05;;;;;;;5.20;1.90;;;;;;;19.85;40.90;99942.11;1721405;81;21018;-72
2022/05/28 09:26:39;;;;;;;3.43;1.80;;;;;;;19.81;40.47;99937.67;1715078;81;21041;-72
2022/05/28 09:29:17;;;;;;;5.50;1.60;;;;;;;19.77;40.26;99938.11;1719284;81;21610;-72
2022/05/28 09:32:15;;;;;;;4.40;1.90;;;;;;;19.71;40.69;99944.86;1719071;81;21527;-72
2022/05/28 09:34:49;;;;;;;4.97;1.90;;;;;;;19.61;39.82;99948.20;1713957;81;21024;-71
2022/05/28 09:37:37;;;;;;;5.90;1.80;;;;;;;19.42;40.35;99963.57;1713905;81;22105;-72
2022/05/28 09:40:15;;;;;;;3.77;1.50;;;;;;;19.27;40.88;99949.26;1710922;81;21058;-71
2022/05/28 09:42:51;;;;;;;3.40;1.43;;;;;;;19.19;40.83;99944.14;1713336;81;21161;-72
2022/05/28 09:45:35;;;;;;;3.10;1.57;;;;;;;19.07;39.77;99951.39;1698700;82;21109;-71
2022/05/28 09:48:04;;;;;;;6.57;2.20;;;;;;;19.07;40.34;99935.16;1700681;82;21136;-71
2022/05/28 09:50:39;;;;;;;4.10;1.60;;;;;;;19.21;40.34;99939.17;1699377;83;21106;-72
2022/05/28 09:56:03;;;;;;;3.03;1.37;;;;;;;19.31;39.92;99932.58;1717695;82;21072;-71
2022/05/28 09:58:33;;;;;;;5.77;1.90;;;;;;;19.49;39.63;99932.45;1689960;83;21352;-72
2022/05/28 10:01:21;;;;;;;3.07;1.43;;;;;;;19.74;39.39;99930.08;1721537;81;21067;-72
2022/05/28 10:06:49;;;;;;;3.63;1.50;;;;;;;20.11;38.35;99927.50;1716055;81;21090;-71
2022/05/28 10:09:22;;;;;;;3.17;1.33;;;;;;;20.17;38.39;99922.09;1714603;81;21126;-73
2022/05/28 10:11:54;;;;;;;3.87;1.33;;;;;;;20.14;37.87;99928.18;1721301;81;21655;-72
2022/05/28 10:14:22;;;;;;;3.37;1.50;;;;;;;20.05;38.27;99920.13;1717925;81;21169;-72
2022/05/28 10:16:51;;;;;;;3.93;1.50;;;;;;;20.08;38.12;99923.53;1709851;82;20981;-72
2022/05/28 10:19:25;;;;;;;3.20;1.50;;;;;;;20.15;37.35;99920.27;1649815;84;21062;-70
2022/05/28 10:21:56;;;;;;;2.53;1.33;;;;;;;20.20;37.48;99923.31;1700145;84;21097;-72
2022/05/28 10:24:24;;;;;;;5.03;1.53;;;;;;;20.19;36.48;99925.80;1701025;84;21112;-71
2022/05/28 10:26:59;;;;;;;4.23;1.60;;;;;;;20.18;37.15;99923.66;1700462;84;21422;-71
2022/05/28 10:29:37;;;;;;;4.53;1.40;;;;;;;20.19;36.11;99913.03;1686042;83;21054;-71
2022/05/28 10:32:01;;;;;;;2.73;1.40;;;;;;;20.20;36.71;99915.97;1699690;84;21204;-71
2022/05/28 10:34:34;;;;;;;4.03;1.50;;;;;;;20.18;37.41;99910.67;1701195;84;21046;-71
2022/05/28 10:37:14;;;;;;;4.40;1.55;;;;;;;20.08;37.28;99911.91;1676788;84;21326;-71
2022/05/28 10:39:42;;;;;;;2.27;1.20;;;;;;;19.94;37.01;99908.69;1672895;85;21463;-72
2022/05/28 10:42:12;;;;;;;2.33;1.20;;;;;;;19.80;36.49;99896.80;1673243;85;21549;-70
2022/05/28 10:44:41;;;;;;;2.97;1.60;;;;;;;19.79;36.76;99910.92;1692476;83;20975;-70
2022/05/28 10:47:35;;;;;;;3.30;1.33;;;;;;;19.95;36.75;99896.73;1687207;83;21079;-72
2022/05/28 10:50:23;;;;;;;4.97;1.57;;;;;;;20.11;36.96;99896.32;1684210;83;21221;-71
2022/05/28 10:53:11;;;;;;;2.93;1.27;;;;;;;20.31;36.70;99892.72;1687134;83;21023;-71
2022/05/28 10:56:13;;;;;;;3.93;1.50;;;;;;;20.41;37.31;99877.13;1677669;83;21101;-71
2022/05/28 10:59:30;;;;;;;4.50;1.47;;;;;;;20.54;37.50;99880.09;1674626;83;21083;-72
2022/05/28 11:02:26;;;;;;;5.10;1.50;;;;;;;20.71;37.48;99875.77;1686680;83;21035;-71
2022/05/28 11:05:04;;;;;;;2.10;1.20;;;;;;;21.06;37.23;99877.98;1674021;84;21129;-72
2022/05/28 11:07:55;;;;;;;3.53;1.60;;;;;;;21.24;37.29;99879.83;1690143;83;21108;-73
2022/05/28 11:10:55;;;;;;;4.17;1.62;;;;;;;21.24;36.62;99869.75;1693100;83;21071;-73
2022/05/28 11:13:50;;;;;;;2.67;1.30;;;;;;;21.16;35.90;99871.24;1692803;83;21022;-73
2022/05/28 11:16:36;;;;;;;2.73;1.43;;;;;;;21.03;36.61;99863.73;1620352;84;21032;-72
2022/05/28 11:19:11;;;;;;;3.77;1.53;;;;;;;20.99;37.12;99870.95;1697167;84;21143;-72
2022/05/28 11:21:49;;;;;;;3.10;1.50;;;;;;;21.07;36.58;99865.97;1698512;83;21055;-72
2022/05/28 11:24:42;;;;;;;2.93;1.30;;;;;;;21.17;36.10;99858.69;1697796;84;21063;-72
2022/05/28 11:27:33;;;;;;;2.30;1.30;;;;;;;21.19;35.22;99874.09;1697774;84;21081;-70
2022/05/28 11:30:17;;;;;;;3.07;1.50;;;;;;;21.06;33.58;99871.97;1672284;83;21153;-70
2022/05/28 11:33:13;;;;;;;8.77;1.70;;;;;;;20.93;32.74;99873.14;1699279;81;22142;-70
2022/05/28 11:36:00;;;;;;;2.83;1.20;;;;;;;20.83;33.13;99864.91;1683491;82;21003;-72
2022/05/28 11:38:41;;;;;;;3.03;1.30;;;;;;;20.90;34.33;99863.53;1698962;81;21713;-70
2022/05/28 11:41:26;;;;;;;5.60;1.50;;;;;;;21.07;33.90;99866.76;1683070;82;21109;-71
2022/05/28 11:44:10;;;;;;;3.43;1.57;;;;;;;;;;1678973;82;21079;-71
2022/05/28 11:47:07;;;;;;;5.13;1.50;;;;;;;21.13;32.78;99872.74;1679312;82;21620;-71
2022/05/28 11:52:49;;;;;;;3.77;1.20;;;;;;;20.98;32.76;99882.39;1704351;82;22238;-72
2022/05/28 11:55:23;;;;;;;2.80;1.27;;;;;;;20.73;32.18;99868.09;1704632;83;21093;-71
2022/05/28 11:58:02;;;;;;;3.53;1.53;;;;;;;20.63;32.48;99857.67;1704798;83;21070;-71
2022/05/28 12:00:34;;;;;;;3.30;1.60;;;;;;;20.51;33.21;99880.20;1704876;83;21455;-71
2022/05/28 12:03:23;;;;;;;7.22;4.50;;;;;;;20.49;33.79;99886.49;1704103;83;26745;-72
2022/05/28 12:06:08;;;;;;;10.97;9.87;;;;;;;20.51;33.28;99890.27;1704981;83;21102;-71
2022/05/28 12:08:49;;;;;;;5.30;2.87;;;;;;;20.47;33.61;99879.84;1684323;82;21127;-72
2022/05/28 12:11:39;;;;;;;2.67;1.40;;;;;;;20.38;33.63;99894.86;1688318;82;21156;-73
2022/05/28 12:14:24;;;;;;;3.52;1.90;;;;;;;20.33;34.16;99886.37;1682897;82;21397;-71